sensor_id;sensor_type;location;lat;lon;timestamp;temperature;humidity
2010;DHT22;1008;47.404;8.502;2022-08-20T00:00:30;18.30;99.90
2010;DHT22;1008;47.404;8.502;2022-08-20T00:02:59;18.30;99.90
2010;DHT22;1008;47.404;8.502;2022-08-20T00:05:30;18.50;99.90
2010;DHT22;1008;47.404;8.502;2022-08-20T00:07:57;18.40;99.90
2010;DHT22;1008;47.404;8.502;2022-08-20T00:10:25;18.50;99.90
2010;DHT22;1008;47.404;8.502;2022-08-20T00:12:53;18.50;99.90
2010;DHT22;1008;47.404;8.502;2022-08-20T00:15:24;18.40;99.90
2010;DHT22;1008;47.404;8.502;2022-08-20T00:17:53;18.30;99.90
2010;DHT22;1008;47.404;8.502;2022-08-20T00:20:22;18.20;99.90
2010;DHT22;1008;47.404;8.502;2022-08-20T00:22:49;18.30;99.90
2010;DHT22;1008;47.404;8.502;2022-08-20T00:25:16;18.30;99.90
2010;DHT22;1008;47.404;8.502;2022-08-20T00:27:43;18.30;99.90
2010;DHT22;1008;47.404;8.502;2022-08-20T00:30:12;18.30;99.90
2010;DHT22;1008;47.404;8.502;2022-08-20T00:32:43;18.30;99.90
2010;DHT22;1008;47.404;8.502;2022-08-20T00:35:10;18.30;99.90
2010;DHT22;1008;47.404;8.502;2022-08-20T00:37:37;18.30;99.90
2010;DHT22;1008;47.404;8.502;2022-08-20T00:40:06;18.40;99.90
2010;DHT22;1008;47.404;8.502;2022-08-20T00:42:40;18.30;99.90
2010;DHT22;1008;47.404;8.502;2022-08-20T00:45:08;18.30;99.90
2010;DHT22;1008;47.404;8.502;2022-08-20T00:47:37;18.20;99.90
2010;DHT22;1008;47.404;8.502;2022-08-20T00:50:07;18.40;99.90
2010;DHT22;1008;47.404;8.502;2022-08-20T00:52:34;18.40;99.90
2010;DHT22;1008;47.404;8.502;2022-08-20T00:55:04;18.30;99.90
2010;DHT22;1008;47.404;8.502;2022-08-20T00:57:34;18.30;99.90
2010;DHT22;1008;47.404;8.502;2022-08-20T01:00:07;18.30;99.90
2010;DHT22;1008;47.404;8.502;2022-08-20T01:02:37;18.20;99.90
2010;DHT22;1008;47.404;8.502;2022-08-20T01:05:05;18.20;99.90
2010;DHT22;1008;47.404;8.502;2022-08-20T01:07:34;18.30;99.90
2010;DHT22;1008;47.404;8.502;2022-08-20T01:10:04;18.30;99.90
2010;DHT22;1008;47.404;8.502;2022-08-20T01:12:31;18.30;99.90
2010;DHT22;1008;47.404;8.502;2022-08-20T01:15:00;18.60;99.90
2010;DHT22;1008;47.404;8.502;2022-08-20T01:17:31;18.20;99.90
2010;DHT22;1008;47.404;8.502;2022-08-20T01:20:07;18.10;99.90
2010;DHT22;1008;47.404;8.502;2022-08-20T01:22:40;18.20;99.90
2010;DHT22;1008;47.404;8.502;2022-08-20T01:28:00;18.20;99.90
2010;DHT22;1008;47.404;8.502;2022-08-20T01:30:28;18.30;99.90
2010;DHT22;1008;47.404;8.502;2022-08-20T01:32:55;18.10;99.90
2010;DHT22;1008;47.404;8.502;2022-08-20T01:35:23;18.20;99.90
2010;DHT22;1008;47.404;8.502;2022-08-20T01:37:49;18.30;99.90
2010;DHT22;1008;47.404;8.502;2022-08-20T01:40:21;18.20;99.90
2010;DHT22;1008;47.404;8.502;2022-08-20T01:42:49;18.30;99.90
2010;DHT22;1008;47.404;8.502;2022-08-20T01:45:18;18.30;99.90
2010;DHT22;1008;47.404;8.502;2022-08-20T01:47:45;18.50;99.90
2010;DHT22;1008;47.404;8.502;2022-08-20T01:50:17;18.40;99.90
2010;DHT22;1008;47.404;8.502;2022-08-20T01:52:53;18.40;99.90
2010;DHT22;1008;47.404;8.502;2022-08-20T01:55:23;18.30;99.90
2010;DHT22;1008;47.404;8.502;2022-08-20T01:57:51;18.30;99.90
2010;DHT22;1008;47.404;8.502;2022-08-20T02:00:19;18.30;99.90
2010;DHT22;1008;47.404;8.502;2022-08-20T02:02:46;18.30;99.90
2010;DHT22;1008;47.404;8.502;2022-08-20T02:05:13;18.40;99.90
2010;DHT22;1008;47.404;8.502;2022-08-20T02:07:40;18.40;99.90
2010;DHT22;1008;47.404;8.502;2022-08-20T02:10:10;18.30;99.90
2010;DHT22;1008;47.404;8.502;2022-08-20T02:12:37;18.40;99.90
2010;DHT22;1008;47.404;8.502;2022-08-20T02:15:07;18.40;99.90
2010;DHT22;1008;47.404;8.502;2022-08-20T02:17:37;18.40;99.90
2010;DHT22;1008;47.404;8.502;2022-08-20T02:20:06;18.40;99.90
2010;DHT22;1008;47.404;8.502;2022-08-20T02:22:36;18.40;99.90
2010;DHT22;1008;47.404;8.502;2022-08-20T02:25:07;18.50;99.90
2010;DHT22;1008;47.404;8.502;2022-08-20T02:27:35;18.40;99.90
2010;DHT22;1008;47.404;8.502;2022-08-20T02:30:05;18.40;99.90
2010;DHT22;1008;47.404;8.502;2022-08-20T02:32:36;18.40;99.90
2010;DHT22;1008;47.404;8.502;2022-08-20T02:35:04;18.40;99.90
2010;DHT22;1008;47.404;8.502;2022-08-20T02:37:31;18.40;99.90
2010;DHT22;1008;47.404;8.502;2022-08-20T02:39:58;18.40;99.90
2010;DHT22;1008;47.404;8.502;2022-08-20T02:42:25;18.40;99.90
2010;DHT22;1008;47.404;8.502;2022-08-20T02:44:52;18.40;99.90
2010;DHT22;1008;47.404;8.502;2022-08-20T02:47:19;18.40;99.90
2010;DHT22;1008;47.404;8.502;2022-08-20T02:49:47;18.30;99.90
2010;DHT22;1008;47.404;8.502;2022-08-20T02:52:14;18.30;99.90
2010;DHT22;1008;47.404;8.502;2022-08-20T02:54:40;18.30;99.90
2010;DHT22;1008;47.404;8.502;2022-08-20T02:57:11;18.30;99.90
2010;DHT22;1008;47.404;8.502;2022-08-20T02:59:38;18.40;99.90
2010;DHT22;1008;47.404;8.502;2022-08-20T03:02:05;18.40;99.90
2010;DHT22;1008;47.404;8.502;2022-08-20T03:04:31;18.50;99.90
2010;DHT22;1008;47.404;8.502;2022-08-20T03:06:59;18.50;99.90
2010;DHT22;1008;47.404;8.502;2022-08-20T03:09:26;18.40;99.90
2010;DHT22;1008;47.404;8.502;2022-08-20T03:11:53;18.40;99.90
2010;DHT22;1008;47.404;8.502;2022-08-20T03:14:19;18.50;99.90
2010;DHT22;1008;47.404;8.502;2022-08-20T03:16:46;18.40;99.90
2010;DHT22;1008;47.404;8.502;2022-08-20T03:19:13;18.50;99.90
2010;DHT22;1008;47.404;8.502;2022-08-20T03:21:40;18.50;99.90
2010;DHT22;1008;47.404;8.502;2022-08-20T03:24:08;18.40;99.90
2010;DHT22;1008;47.404;8.502;2022-08-20T03:26:35;18.40;99.90
2010;DHT22;1008;47.404;8.502;2022-08-20T03:29:02;18.30;99.90
2010;DHT22;1008;47.404;8.502;2022-08-20T03:31:29;18.30;99.90
2010;DHT22;1008;47.404;8.502;2022-08-20T03:33:55;18.30;99.90
2010;DHT22;1008;47.404;8.502;2022-08-20T03:36:23;18.30;99.90
2010;DHT22;1008;47.404;8.502;2022-08-20T03:38:50;18.30;99.90
2010;DHT22;1008;47.404;8.502;2022-08-20T03:41:18;18.40;99.90
2010;DHT22;1008;47.404;8.502;2022-08-20T03:43:45;18.30;99.90
2010;DHT22;1008;47.404;8.502;2022-08-20T03:46:12;18.30;99.90
2010;DHT22;1008;47.404;8.502;2022-08-20T03:48:39;18.20;99.90
2010;DHT22;1008;47.404;8.502;2022-08-20T03:51:06;18.30;99.90
2010;DHT22;1008;47.404;8.502;2022-08-20T03:53:33;18.40;99.90
2010;DHT22;1008;47.404;8.502;2022-08-20T03:56:02;18.20;99.90
2010;DHT22;1008;47.404;8.502;2022-08-20T03:58:32;18.30;99.90
2010;DHT22;1008;47.404;8.502;2022-08-20T04:00:59;18.20;99.90
2010;DHT22;1008;47.404;8.502;2022-08-20T04:03:26;18.30;99.90
2010;DHT22;1008;47.404;8.502;2022-08-20T04:05:53;18.10;99.90
2010;DHT22;1008;47.404;8.502;2022-08-20T04:08:22;18.30;99.90
2010;DHT22;1008;47.404;8.502;2022-08-20T04:10:50;18.30;99.90
2010;DHT22;1008;47.404;8.502;2022-08-20T04:13:19;18.30;99.90
2010;DHT22;1008;47.404;8.502;2022-08-20T04:15:47;18.30;99.90
2010;DHT22;1008;47.404;8.502;2022-08-20T04:18:15;18.30;99.90
2010;DHT22;1008;47.404;8.502;2022-08-20T04:20:45;18.40;99.90
2010;DHT22;1008;47.404;8.502;2022-08-20T04:23:13;18.50;99.90
2010;DHT22;1008;47.404;8.502;2022-08-20T04:25:40;18.60;99.90
2010;DHT22;1008;47.404;8.502;2022-08-20T04:28:11;18.50;99.90
2010;DHT22;1008;47.404;8.502;2022-08-20T04:30:38;18.50;99.90
2010;DHT22;1008;47.404;8.502;2022-08-20T04:33:08;18.40;99.90
2010;DHT22;1008;47.404;8.502;2022-08-20T04:35:35;18.30;99.90
2010;DHT22;1008;47.404;8.502;2022-08-20T04:38:04;18.30;99.90
2010;DHT22;1008;47.404;8.502;2022-08-20T04:40:33;18.30;99.90
2010;DHT22;1008;47.404;8.502;2022-08-20T04:43:17;18.30;99.90
2010;DHT22;1008;47.404;8.502;2022-08-20T04:45:45;18.30;99.90
2010;DHT22;1008;47.404;8.502;2022-08-20T04:48:14;18.30;99.90
2010;DHT22;1008;47.404;8.502;2022-08-20T04:50:43;18.40;99.90
2010;DHT22;1008;47.404;8.502;2022-08-20T04:53:14;18.50;99.90
2010;DHT22;1008;47.404;8.502;2022-08-20T04:55:44;18.50;99.90
2010;DHT22;1008;47.404;8.502;2022-08-20T04:58:13;18.50;99.90
2010;DHT22;1008;47.404;8.502;2022-08-20T05:00:44;18.50;99.90
2010;DHT22;1008;47.404;8.502;2022-08-20T05:03:11;18.60;99.90
2010;DHT22;1008;47.404;8.502;2022-08-20T05:05:39;18.60;99.90
2010;DHT22;1008;47.404;8.502;2022-08-20T05:08:06;18.90;99.90
2010;DHT22;1008;47.404;8.502;2022-08-20T05:10:33;18.50;99.90
2010;DHT22;1008;47.404;8.502;2022-08-20T05:13:03;18.60;99.90
2010;DHT22;1008;47.404;8.502;2022-08-20T05:15:30;18.70;99.90
2010;DHT22;1008;47.404;8.502;2022-08-20T05:17:58;18.70;99.90
2010;DHT22;1008;47.404;8.502;2022-08-20T05:20:27;18.60;99.90
2010;DHT22;1008;47.404;8.502;2022-08-20T05:22:58;18.60;99.90
2010;DHT22;1008;47.404;8.502;2022-08-20T05:25:26;18.70;99.90
2010;DHT22;1008;47.404;8.502;2022-08-20T05:27:56;18.80;99.90
2010;DHT22;1008;47.404;8.502;2022-08-20T05:30:25;18.90;99.90
2010;DHT22;1008;47.404;8.502;2022-08-20T05:32:57;18.80;99.90
2010;DHT22;1008;47.404;8.502;2022-08-20T05:35:24;18.90;99.90
2010;DHT22;1008;47.404;8.502;2022-08-20T05:37:52;18.90;99.90
2010;DHT22;1008;47.404;8.502;2022-08-20T05:40:21;18.90;99.90
2010;DHT22;1008;47.404;8.502;2022-08-20T05:42:48;19.00;99.90
2010;DHT22;1008;47.404;8.502;2022-08-20T05:45:14;19.00;99.90
2010;DHT22;1008;47.404;8.502;2022-08-20T05:47:43;18.90;99.90
2010;DHT22;1008;47.404;8.502;2022-08-20T05:50:11;18.90;99.90
2010;DHT22;1008;47.404;8.502;2022-08-20T05:52:38;18.90;99.90
2010;DHT22;1008;47.404;8.502;2022-08-20T05:55:07;18.90;99.90
2010;DHT22;1008;47.404;8.502;2022-08-20T05:57:35;19.10;99.90
2010;DHT22;1008;47.404;8.502;2022-08-20T06:00:06;19.10;99.90
2010;DHT22;1008;47.404;8.502;2022-08-20T06:02:33;19.00;99.90
2010;DHT22;1008;47.404;8.502;2022-08-20T06:05:18;18.80;99.90
2010;DHT22;1008;47.404;8.502;2022-08-20T06:07:45;19.00;99.90
2010;DHT22;1008;47.404;8.502;2022-08-20T06:10:12;19.20;99.90
2010;DHT22;1008;47.404;8.502;2022-08-20T06:12:40;19.00;99.90
2010;DHT22;1008;47.404;8.502;2022-08-20T06:15:09;19.50;99.90
2010;DHT22;1008;47.404;8.502;2022-08-20T06:17:36;19.10;99.90
2010;DHT22;1008;47.404;8.502;2022-08-20T06:20:06;19.20;99.90
2010;DHT22;1008;47.404;8.502;2022-08-20T06:22:33;19.20;99.90
2010;DHT22;1008;47.404;8.502;2022-08-20T06:25:00;19.10;99.90
2010;DHT22;1008;47.404;8.502;2022-08-20T06:27:27;19.30;99.90
2010;DHT22;1008;47.404;8.502;2022-08-20T06:29:55;19.20;99.90
2010;DHT22;1008;47.404;8.502;2022-08-20T06:32:22;19.10;99.90
2010;DHT22;1008;47.404;8.502;2022-08-20T06:34:51;19.30;99.90
2010;DHT22;1008;47.404;8.502;2022-08-20T06:37:20;19.80;99.90
2010;DHT22;1008;47.404;8.502;2022-08-20T06:39:48;19.40;99.90
2010;DHT22;1008;47.404;8.502;2022-08-20T06:42:15;19.40;99.90
2010;DHT22;1008;47.404;8.502;2022-08-20T06:44:42;19.40;99.90
2010;DHT22;1008;47.404;8.502;2022-08-20T06:47:17;19.50;99.90
2010;DHT22;1008;47.404;8.502;2022-08-20T06:49:45;19.70;99.90
2010;DHT22;1008;47.404;8.502;2022-08-20T06:52:13;19.80;99.90
2010;DHT22;1008;47.404;8.502;2022-08-20T06:54:41;20.00;99.90
2010;DHT22;1008;47.404;8.502;2022-08-20T06:57:08;19.90;99.90
2010;DHT22;1008;47.404;8.502;2022-08-20T06:59:35;20.00;99.90
2010;DHT22;1008;47.404;8.502;2022-08-20T07:02:02;20.20;99.90
2010;DHT22;1008;47.404;8.502;2022-08-20T07:04:31;20.10;99.90
2010;DHT22;1008;47.404;8.502;2022-08-20T07:06:58;20.20;99.90
2010;DHT22;1008;47.404;8.502;2022-08-20T07:09:25;20.40;99.90
2010;DHT22;1008;47.404;8.502;2022-08-20T07:11:52;20.30;99.90
2010;DHT22;1008;47.404;8.502;2022-08-20T07:14:20;20.20;99.90
2010;DHT22;1008;47.404;8.502;2022-08-20T07:16:47;20.30;99.90
2010;DHT22;1008;47.404;8.502;2022-08-20T07:19:14;20.30;99.90
2010;DHT22;1008;47.404;8.502;2022-08-20T07:21:43;20.10;99.90
2010;DHT22;1008;47.404;8.502;2022-08-20T07:24:12;20.20;99.90
2010;DHT22;1008;47.404;8.502;2022-08-20T07:26:38;20.60;99.90
2010;DHT22;1008;47.404;8.502;2022-08-20T07:29:05;20.40;99.90
2010;DHT22;1008;47.404;8.502;2022-08-20T07:31:32;20.60;99.90
2010;DHT22;1008;47.404;8.502;2022-08-20T07:34:16;20.00;99.90
2010;DHT22;1008;47.404;8.502;2022-08-20T07:36:44;19.80;99.90
2010;DHT22;1008;47.404;8.502;2022-08-20T07:39:13;19.80;99.90
2010;DHT22;1008;47.404;8.502;2022-08-20T07:41:40;20.00;99.90
2010;DHT22;1008;47.404;8.502;2022-08-20T07:44:07;19.90;99.90
2010;DHT22;1008;47.404;8.502;2022-08-20T07:46:34;20.00;99.90
2010;DHT22;1008;47.404;8.502;2022-08-20T07:49:00;19.90;99.90
2010;DHT22;1008;47.404;8.502;2022-08-20T07:51:34;20.00;99.90
2010;DHT22;1008;47.404;8.502;2022-08-20T07:54:03;19.90;99.90
2010;DHT22;1008;47.404;8.502;2022-08-20T07:56:30;20.00;99.90
2010;DHT22;1008;47.404;8.502;2022-08-20T07:58:58;19.80;99.90
2010;DHT22;1008;47.404;8.502;2022-08-20T08:01:28;19.70;99.90
2010;DHT22;1008;47.404;8.502;2022-08-20T08:03:56;19.90;99.90
2010;DHT22;1008;47.404;8.502;2022-08-20T08:06:24;19.70;99.90
2010;DHT22;1008;47.404;8.502;2022-08-20T08:08:51;19.60;99.90
2010;DHT22;1008;47.404;8.502;2022-08-20T08:11:20;19.50;99.90
2010;DHT22;1008;47.404;8.502;2022-08-20T08:13:47;19.60;99.90
2010;DHT22;1008;47.404;8.502;2022-08-20T08:16:14;19.70;99.90
2010;DHT22;1008;47.404;8.502;2022-08-20T08:18:43;19.60;99.90
2010;DHT22;1008;47.404;8.502;2022-08-20T08:21:10;19.60;99.90
2010;DHT22;1008;47.404;8.502;2022-08-20T08:23:38;19.70;99.90
2010;DHT22;1008;47.404;8.502;2022-08-20T08:26:09;19.70;99.90
2010;DHT22;1008;47.404;8.502;2022-08-20T08:28:38;20.00;99.90
2010;DHT22;1008;47.404;8.502;2022-08-20T08:31:06;19.90;99.90
2010;DHT22;1008;47.404;8.502;2022-08-20T08:33:32;19.70;99.90
2010;DHT22;1008;47.404;8.502;2022-08-20T08:36:02;19.70;99.90
2010;DHT22;1008;47.404;8.502;2022-08-20T08:38:30;19.70;99.90
2010;DHT22;1008;47.404;8.502;2022-08-20T08:41:06;19.60;99.90
2010;DHT22;1008;47.404;8.502;2022-08-20T08:43:33;19.60;99.90
2010;DHT22;1008;47.404;8.502;2022-08-20T08:46:08;19.60;99.90
2010;DHT22;1008;47.404;8.502;2022-08-20T08:48:37;19.80;99.90
2010;DHT22;1008;47.404;8.502;2022-08-20T08:51:09;19.70;99.90
2010;DHT22;1008;47.404;8.502;2022-08-20T08:53:38;19.90;99.90
2010;DHT22;1008;47.404;8.502;2022-08-20T08:56:06;19.80;99.90
2010;DHT22;1008;47.404;8.502;2022-08-20T08:58:34;19.70;99.90
2010;DHT22;1008;47.404;8.502;2022-08-20T09:01:08;19.80;99.90
2010;DHT22;1008;47.404;8.502;2022-08-20T09:03:37;19.50;99.90
2010;DHT22;1008;47.404;8.502;2022-08-20T09:06:05;19.30;99.90
2010;DHT22;1008;47.404;8.502;2022-08-20T09:08:37;19.30;99.90
2010;DHT22;1008;47.404;8.502;2022-08-20T09:11:06;19.50;99.90
2010;DHT22;1008;47.404;8.502;2022-08-20T09:13:35;19.60;99.90
2010;DHT22;1008;47.404;8.502;2022-08-20T09:16:03;19.60;99.90
2010;DHT22;1008;47.404;8.502;2022-08-20T09:18:30;19.50;99.90
2010;DHT22;1008;47.404;8.502;2022-08-20T09:20:57;19.60;99.90
2010;DHT22;1008;47.404;8.502;2022-08-20T09:23:23;19.60;99.90
2010;DHT22;1008;47.404;8.502;2022-08-20T09:25:50;20.00;99.90
2010;DHT22;1008;47.404;8.502;2022-08-20T09:28:17;19.80;99.90
2010;DHT22;1008;47.404;8.502;2022-08-20T09:30:44;19.90;99.90
2010;DHT22;1008;47.404;8.502;2022-08-20T09:33:12;19.90;99.90
2010;DHT22;1008;47.404;8.502;2022-08-20T09:35:38;20.00;99.90
2010;DHT22;1008;47.404;8.502;2022-08-20T09:38:06;20.00;99.90
2010;DHT22;1008;47.404;8.502;2022-08-20T09:40:33;20.00;99.90
2010;DHT22;1008;47.404;8.502;2022-08-20T09:43:00;19.90;99.90
2010;DHT22;1008;47.404;8.502;2022-08-20T09:45:28;20.00;99.90
2010;DHT22;1008;47.404;8.502;2022-08-20T09:47:54;20.00;99.90
2010;DHT22;1008;47.404;8.502;2022-08-20T09:50:23;20.20;99.90
2010;DHT22;1008;47.404;8.502;2022-08-20T09:52:50;20.20;99.90
2010;DHT22;1008;47.404;8.502;2022-08-20T09:55:21;20.10;99.90
2010;DHT22;1008;47.404;8.502;2022-08-20T09:57:50;20.10;99.90
2010;DHT22;1008;47.404;8.502;2022-08-20T10:00:18;19.90;99.90
2010;DHT22;1008;47.404;8.502;2022-08-20T10:02:45;20.00;99.90
2010;DHT22;1008;47.404;8.502;2022-08-20T10:05:12;20.00;99.90
2010;DHT22;1008;47.404;8.502;2022-08-20T10:07:40;19.90;99.90
2010;DHT22;1008;47.404;8.502;2022-08-20T10:10:10;19.80;99.90
2010;DHT22;1008;47.404;8.502;2022-08-20T10:12:37;19.80;99.90
2010;DHT22;1008;47.404;8.502;2022-08-20T10:15:06;19.80;99.90
2010;DHT22;1008;47.404;8.502;2022-08-20T10:17:36;19.60;99.90
2010;DHT22;1008;47.404;8.502;2022-08-20T10:20:05;19.40;99.90
2010;DHT22;1008;47.404;8.502;2022-08-20T10:22:32;19.50;99.90
2010;DHT22;1008;47.404;8.502;2022-08-20T10:25:00;19.50;99.90
2010;DHT22;1008;47.404;8.502;2022-08-20T10:27:27;19.50;99.90
2010;DHT22;1008;47.404;8.502;2022-08-20T10:29:54;19.50;99.90
2010;DHT22;1008;47.404;8.502;2022-08-20T10:32:21;19.50;99.90
2010;DHT22;1008;47.404;8.502;2022-08-20T10:34:47;19.60;99.90
2010;DHT22;1008;47.404;8.502;2022-08-20T10:37:16;19.70;99.90
2010;DHT22;1008;47.404;8.502;2022-08-20T10:39:43;19.90;99.90
2010;DHT22;1008;47.404;8.502;2022-08-20T10:42:12;20.10;99.90
2010;DHT22;1008;47.404;8.502;2022-08-20T10:44:39;20.10;99.90
2010;DHT22;1008;47.404;8.502;2022-08-20T10:47:14;20.30;99.90
2010;DHT22;1008;47.404;8.502;2022-08-20T10:49:41;20.30;99.90
2010;DHT22;1008;47.404;8.502;2022-08-20T10:52:08;20.40;99.90
2010;DHT22;1008;47.404;8.502;2022-08-20T10:54:35;20.50;99.90
2010;DHT22;1008;47.404;8.502;2022-08-20T10:57:05;20.40;99.90
2010;DHT22;1008;47.404;8.502;2022-08-20T10:59:37;20.60;99.90
2010;DHT22;1008;47.404;8.502;2022-08-20T11:02:04;20.70;99.90
2010;DHT22;1008;47.404;8.502;2022-08-20T11:04:31;20.70;99.90
2010;DHT22;1008;47.404;8.502;2022-08-20T11:07:08;20.60;99.90
2010;DHT22;1008;47.404;8.502;2022-08-20T11:09:35;20.60;99.90
2010;DHT22;1008;47.404;8.502;2022-08-20T11:12:02;20.80;99.90
2010;DHT22;1008;47.404;8.502;2022-08-20T11:14:28;20.80;99.90
2010;DHT22;1008;47.404;8.502;2022-08-20T11:16:57;20.90;99.90
2010;DHT22;1008;47.404;8.502;2022-08-20T11:19:23;21.00;99.90
2010;DHT22;1008;47.404;8.502;2022-08-20T11:21:50;21.00;99.90
2010;DHT22;1008;47.404;8.502;2022-08-20T11:24:17;21.40;99.90
2010;DHT22;1008;47.404;8.502;2022-08-20T11:26:45;21.30;99.90
2010;DHT22;1008;47.404;8.502;2022-08-20T11:29:12;21.70;99.90
2010;DHT22;1008;47.404;8.502;2022-08-20T11:31:39;21.80;99.90
2010;DHT22;1008;47.404;8.502;2022-08-20T11:34:07;21.80;99.90
2010;DHT22;1008;47.404;8.502;2022-08-20T11:36:34;22.20;99.90
2010;DHT22;1008;47.404;8.502;2022-08-20T11:39:02;22.80;99.90
2010;DHT22;1008;47.404;8.502;2022-08-20T11:41:29;23.10;99.90
2010;DHT22;1008;47.404;8.502;2022-08-20T11:43:56;23.40;99.90
2010;DHT22;1008;47.404;8.502;2022-08-20T11:46:22;23.70;99.90
2010;DHT22;1008;47.404;8.502;2022-08-20T11:48:49;23.70;99.90
2010;DHT22;1008;47.404;8.502;2022-08-20T11:51:17;23.70;99.90
2010;DHT22;1008;47.404;8.502;2022-08-20T11:53:44;23.90;99.90
2010;DHT22;1008;47.404;8.502;2022-08-20T11:56:12;23.20;99.90
2010;DHT22;1008;47.404;8.502;2022-08-20T11:58:40;23.10;99.90
2010;DHT22;1008;47.404;8.502;2022-08-20T12:01:07;23.20;99.90
2010;DHT22;1008;47.404;8.502;2022-08-20T12:03:34;23.30;99.90
2010;DHT22;1008;47.404;8.502;2022-08-20T12:06:01;23.10;99.90
2010;DHT22;1008;47.404;8.502;2022-08-20T12:08:30;23.70;99.90
2010;DHT22;1008;47.404;8.502;2022-08-20T12:10:59;23.90;99.90
2010;DHT22;1008;47.404;8.502;2022-08-20T12:13:28;24.00;99.90
2010;DHT22;1008;47.404;8.502;2022-08-20T12:15:55;24.20;99.90
2010;DHT22;1008;47.404;8.502;2022-08-20T12:18:22;23.60;99.90
2010;DHT22;1008;47.404;8.502;2022-08-20T12:20:49;23.30;99.90
2010;DHT22;1008;47.404;8.502;2022-08-20T12:23:16;23.50;99.90
2010;DHT22;1008;47.404;8.502;2022-08-20T12:25:44;23.90;99.90
2010;DHT22;1008;47.404;8.502;2022-08-20T12:28:11;23.90;99.90
2010;DHT22;1008;47.404;8.502;2022-08-20T12:30:38;23.60;99.90
2010;DHT22;1008;47.404;8.502;2022-08-20T12:33:05;23.60;99.90
2010;DHT22;1008;47.404;8.502;2022-08-20T12:35:32;23.80;99.90
2010;DHT22;1008;47.404;8.502;2022-08-20T12:38:03;23.50;99.90
2010;DHT22;1008;47.404;8.502;2022-08-20T12:40:30;23.20;99.90
2010;DHT22;1008;47.404;8.502;2022-08-20T12:42:59;23.20;99.90
2010;DHT22;1008;47.404;8.502;2022-08-20T12:45:26;23.00;99.90
2010;DHT22;1008;47.404;8.502;2022-08-20T12:47:59;23.10;99.90
2010;DHT22;1008;47.404;8.502;2022-08-20T12:50:26;22.90;99.90
2010;DHT22;1008;47.404;8.502;2022-08-20T12:52:53;23.00;99.90
2010;DHT22;1008;47.404;8.502;2022-08-20T12:55:20;23.10;99.90
2010;DHT22;1008;47.404;8.502;2022-08-20T12:57:49;22.50;99.90
2010;DHT22;1008;47.404;8.502;2022-08-20T13:00:20;22.80;99.90
2010;DHT22;1008;47.404;8.502;2022-08-20T13:02:47;23.10;99.90
2010;DHT22;1008;47.404;8.502;2022-08-20T13:05:14;23.40;99.90
2010;DHT22;1008;47.404;8.502;2022-08-20T13:07:43;23.40;99.90
2010;DHT22;1008;47.404;8.502;2022-08-20T13:10:13;23.80;99.90
2010;DHT22;1008;47.404;8.502;2022-08-20T13:12:40;23.80;99.90
2010;DHT22;1008;47.404;8.502;2022-08-20T13:15:07;23.50;99.90
2010;DHT22;1008;47.404;8.502;2022-08-20T13:17:36;23.50;99.90
2010;DHT22;1008;47.404;8.502;2022-08-20T13:20:04;23.10;99.90
2010;DHT22;1008;47.404;8.502;2022-08-20T13:22:30;22.90;99.90
2010;DHT22;1008;47.404;8.502;2022-08-20T13:24:57;23.20;99.90
2010;DHT22;1008;47.404;8.502;2022-08-20T13:27:24;23.20;99.90
2010;DHT22;1008;47.404;8.502;2022-08-20T13:29:53;23.50;99.90
2010;DHT22;1008;47.404;8.502;2022-08-20T13:32:21;23.40;99.90
2010;DHT22;1008;47.404;8.502;2022-08-20T13:34:49;23.30;99.90
2010;DHT22;1008;47.404;8.502;2022-08-20T13:37:18;23.50;99.90
2010;DHT22;1008;47.404;8.502;2022-08-20T13:39:45;23.30;99.90
2010;DHT22;1008;47.404;8.502;2022-08-20T13:42:13;23.60;99.90
2010;DHT22;1008;47.404;8.502;2022-08-20T13:44:40;24.10;99.90
2010;DHT22;1008;47.404;8.502;2022-08-20T13:47:14;23.80;99.90
2010;DHT22;1008;47.404;8.502;2022-08-20T13:49:41;23.90;99.90
2010;DHT22;1008;47.404;8.502;2022-08-20T13:52:09;24.00;99.90
2010;DHT22;1008;47.404;8.502;2022-08-20T13:54:36;24.00;99.90
2010;DHT22;1008;47.404;8.502;2022-08-20T13:57:05;24.00;99.90
2010;DHT22;1008;47.404;8.502;2022-08-20T13:59:35;24.20;99.90
2010;DHT22;1008;47.404;8.502;2022-08-20T14:02:02;24.20;99.90
2010;DHT22;1008;47.404;8.502;2022-08-20T14:04:29;24.40;99.90
2010;DHT22;1008;47.404;8.502;2022-08-20T14:06:56;24.20;99.90
2010;DHT22;1008;47.404;8.502;2022-08-20T14:09:24;24.30;99.90
2010;DHT22;1008;47.404;8.502;2022-08-20T14:11:54;24.20;99.90
2010;DHT22;1008;47.404;8.502;2022-08-20T14:14:21;24.40;99.90
2010;DHT22;1008;47.404;8.502;2022-08-20T14:16:48;24.30;99.90
2010;DHT22;1008;47.404;8.502;2022-08-20T14:19:14;24.30;99.90
2010;DHT22;1008;47.404;8.502;2022-08-20T14:21:41;24.30;99.90
2010;DHT22;1008;47.404;8.502;2022-08-20T14:24:08;24.30;99.90
2010;DHT22;1008;47.404;8.502;2022-08-20T14:26:36;24.20;99.90
2010;DHT22;1008;47.404;8.502;2022-08-20T14:29:03;23.80;99.90
2010;DHT22;1008;47.404;8.502;2022-08-20T14:31:29;23.70;99.90
2010;DHT22;1008;47.404;8.502;2022-08-20T14:33:56;23.70;99.90
2010;DHT22;1008;47.404;8.502;2022-08-20T14:36:23;23.70;99.90
2010;DHT22;1008;47.404;8.502;2022-08-20T14:38:50;23.60;99.90
2010;DHT22;1008;47.404;8.502;2022-08-20T14:41:16;23.70;99.90
2010;DHT22;1008;47.404;8.502;2022-08-20T14:43:44;23.50;99.90
2010;DHT22;1008;47.404;8.502;2022-08-20T14:46:11;23.60;99.90
2010;DHT22;1008;47.404;8.502;2022-08-20T14:48:38;23.40;99.90
2010;DHT22;1008;47.404;8.502;2022-08-20T14:51:05;23.30;99.90
2010;DHT22;1008;47.404;8.502;2022-08-20T14:53:34;23.00;99.90
2010;DHT22;1008;47.404;8.502;2022-08-20T14:56:02;23.00;99.90
2010;DHT22;1008;47.404;8.502;2022-08-20T14:58:29;23.00;99.90
2010;DHT22;1008;47.404;8.502;2022-08-20T15:00:57;23.10;99.90
2010;DHT22;1008;47.404;8.502;2022-08-20T15:03:24;23.10;99.90
2010;DHT22;1008;47.404;8.502;2022-08-20T15:05:54;23.10;99.90
2010;DHT22;1008;47.404;8.502;2022-08-20T15:08:21;23.40;99.90
2010;DHT22;1008;47.404;8.502;2022-08-20T15:10:48;23.60;99.90
2010;DHT22;1008;47.404;8.502;2022-08-20T15:13:15;23.40;99.90
2010;DHT22;1008;47.404;8.502;2022-08-20T15:15:41;23.30;99.90
2010;DHT22;1008;47.404;8.502;2022-08-20T15:18:10;23.30;99.90
2010;DHT22;1008;47.404;8.502;2022-08-20T15:20:37;23.30;99.90
2010;DHT22;1008;47.404;8.502;2022-08-20T15:23:04;23.20;99.90
2010;DHT22;1008;47.404;8.502;2022-08-20T15:25:32;23.10;99.90
2010;DHT22;1008;47.404;8.502;2022-08-20T15:28:00;23.10;99.90
2010;DHT22;1008;47.404;8.502;2022-08-20T15:30:29;23.00;99.90
2010;DHT22;1008;47.404;8.502;2022-08-20T15:32:56;22.90;99.90
2010;DHT22;1008;47.404;8.502;2022-08-20T15:35:26;22.90;99.90
2010;DHT22;1008;47.404;8.502;2022-08-20T15:37:54;22.70;99.90
2010;DHT22;1008;47.404;8.502;2022-08-20T15:40:23;22.60;99.90
2010;DHT22;1008;47.404;8.502;2022-08-20T15:42:50;22.40;99.90
2010;DHT22;1008;47.404;8.502;2022-08-20T15:45:17;22.10;99.90
2010;DHT22;1008;47.404;8.502;2022-08-20T15:47:48;22.00;99.90
2010;DHT22;1008;47.404;8.502;2022-08-20T15:50:21;22.10;99.90
2010;DHT22;1008;47.404;8.502;2022-08-20T15:52:51;21.60;99.90
2010;DHT22;1008;47.404;8.502;2022-08-20T15:55:20;21.70;99.90
2010;DHT22;1008;47.404;8.502;2022-08-20T15:57:54;21.80;99.90
2010;DHT22;1008;47.404;8.502;2022-08-20T16:00:28;21.90;99.90
2010;DHT22;1008;47.404;8.502;2022-08-20T16:06:06;22.20;99.90
2010;DHT22;1008;47.404;8.502;2022-08-20T16:08:50;22.40;99.90
2010;DHT22;1008;47.404;8.502;2022-08-20T16:11:27;22.80;99.90
2010;DHT22;1008;47.404;8.502;2022-08-20T16:14:08;22.90;99.90